sensor_id;sensor_type;location;lat;lon;timestamp;temperature;humidity
44823;DHT22;51097;51.984;5.650;2023-03-03T00:01:29;4.20;99.90
44823;DHT22;51097;51.984;5.650;2023-03-03T00:03:56;4.30;99.90
44823;DHT22;51097;51.984;5.650;2023-03-03T00:06:22;4.40;99.90
44823;DHT22;51097;51.984;5.650;2023-03-03T00:08:49;4.40;99.90
44823;DHT22;51097;51.984;5.650;2023-03-03T00:11:14;4.40;99.90
44823;DHT22;51097;51.984;5.650;2023-03-03T00:13:46;4.50;99.90
44823;DHT22;51097;51.984;5.650;2023-03-03T00:16:14;4.50;99.90
44823;DHT22;51097;51.984;5.650;2023-03-03T00:18:42;4.60;99.90
44823;DHT22;51097;51.984;5.650;2023-03-03T00:21:25;4.70;99.90
44823;DHT22;51097;51.984;5.650;2023-03-03T00:26:38;4.70;99.90
44823;DHT22;51097;51.984;5.650;2023-03-03T00:29:28;4.80;99.90
44823;DHT22;51097;51.984;5.650;2023-03-03T00:31:59;4.60;99.90
44823;DHT22;51097;51.984;5.650;2023-03-03T00:34:27;4.50;99.90
44823;DHT22;51097;51.984;5.650;2023-03-03T00:36:54;4.60;99.90
44823;DHT22;51097;51.984;5.650;2023-03-03T00:41:49;4.60;99.90
44823;DHT22;51097;51.984;5.650;2023-03-03T00:44:57;4.60;99.90
44823;DHT22;51097;51.984;5.650;2023-03-03T00:52:34;4.60;99.90
44823;DHT22;51097;51.984;5.650;2023-03-03T00:55:01;4.70;99.90
44823;DHT22;51097;51.984;5.650;2023-03-03T00:57:26;4.60;99.90
44823;DHT22;51097;51.984;5.650;2023-03-03T00:59:52;4.50;99.90
44823;DHT22;51097;51.984;5.650;2023-03-03T01:02:17;4.40;99.90
44823;DHT22;51097;51.984;5.650;2023-03-03T01:04:49;4.50;99.90
44823;DHT22;51097;51.984;5.650;2023-03-03T01:07:15;4.40;99.90
44823;DHT22;51097;51.984;5.650;2023-03-03T01:09:40;4.50;99.90
44823;DHT22;51097;51.984;5.650;2023-03-03T01:12:06;4.40;99.90
44823;DHT22;51097;51.984;5.650;2023-03-03T01:14:31;4.40;99.90
44823;DHT22;51097;51.984;5.650;2023-03-03T01:16:58;4.60;99.90
44823;DHT22;51097;51.984;5.650;2023-03-03T01:19:23;4.80;99.90
44823;DHT22;51097;51.984;5.650;2023-03-03T01:21:49;4.90;99.90
44823;DHT22;51097;51.984;5.650;2023-03-03T01:24:15;4.90;99.90
44823;DHT22;51097;51.984;5.650;2023-03-03T01:26:40;5.00;99.90
44823;DHT22;51097;51.984;5.650;2023-03-03T01:29:06;4.80;99.90
44823;DHT22;51097;51.984;5.650;2023-03-03T01:31:32;4.80;99.90
44823;DHT22;51097;51.984;5.650;2023-03-03T01:33:58;4.80;99.90
44823;DHT22;51097;51.984;5.650;2023-03-03T01:36:25;4.90;99.90
44823;DHT22;51097;51.984;5.650;2023-03-03T01:38:51;4.90;99.90
44823;DHT22;51097;51.984;5.650;2023-03-03T01:41:16;5.00;99.90
44823;DHT22;51097;51.984;5.650;2023-03-03T01:43:44;5.00;99.90
44823;DHT22;51097;51.984;5.650;2023-03-03T01:48:57;5.30;99.90
44823;DHT22;51097;51.984;5.650;2023-03-03T01:51:30;5.30;99.90
44823;DHT22;51097;51.984;5.650;2023-03-03T01:54:00;5.00;99.90
44823;DHT22;51097;51.984;5.650;2023-03-03T01:56:26;5.10;99.90
44823;DHT22;51097;51.984;5.650;2023-03-03T02:01:23;5.10;99.90
44823;DHT22;51097;51.984;5.650;2023-03-03T02:03:50;5.10;99.90
44823;DHT22;51097;51.984;5.650;2023-03-03T02:06:20;5.00;99.90
44823;DHT22;51097;51.984;5.650;2023-03-03T02:11:22;5.10;99.90
44823;DHT22;51097;51.984;5.650;2023-03-03T02:13:48;5.20;99.90
44823;DHT22;51097;51.984;5.650;2023-03-03T02:16:14;5.30;99.90
44823;DHT22;51097;51.984;5.650;2023-03-03T02:18:39;5.40;99.90
44823;DHT22;51097;51.984;5.650;2023-03-03T02:21:17;5.40;99.90
44823;DHT22;51097;51.984;5.650;2023-03-03T02:24:08;5.50;99.90
44823;DHT22;51097;51.984;5.650;2023-03-03T02:26:40;5.50;99.90
44823;DHT22;51097;51.984;5.650;2023-03-03T02:29:08;5.50;99.90
44823;DHT22;51097;51.984;5.650;2023-03-03T02:31:34;5.60;99.90
44823;DHT22;51097;51.984;5.650;2023-03-03T02:34:00;5.60;99.90
44823;DHT22;51097;51.984;5.650;2023-03-03T02:36:31;5.70;99.90
44823;DHT22;51097;51.984;5.650;2023-03-03T02:41:52;5.70;99.90
44823;DHT22;51097;51.984;5.650;2023-03-03T02:44:22;5.60;99.90
44823;DHT22;51097;51.984;5.650;2023-03-03T02:46:49;5.50;99.90
44823;DHT22;51097;51.984;5.650;2023-03-03T02:49:18;5.50;99.90
44823;DHT22;51097;51.984;5.650;2023-03-03T02:51:44;5.60;99.90
44823;DHT22;51097;51.984;5.650;2023-03-03T02:54:12;5.60;99.90
44823;DHT22;51097;51.984;5.650;2023-03-03T02:56:38;5.70;99.90
44823;DHT22;51097;51.984;5.650;2023-03-03T02:59:04;5.60;99.90
44823;DHT22;51097;51.984;5.650;2023-03-03T03:01:30;5.60;99.90
44823;DHT22;51097;51.984;5.650;2023-03-03T03:03:57;5.70;99.90
44823;DHT22;51097;51.984;5.650;2023-03-03T03:06:23;5.60;99.90
44823;DHT22;51097;51.984;5.650;2023-03-03T03:08:49;5.50;99.90
44823;DHT22;51097;51.984;5.650;2023-03-03T03:11:14;5.50;99.90
44823;DHT22;51097;51.984;5.650;2023-03-03T03:13:40;5.60;99.90
44823;DHT22;51097;51.984;5.650;2023-03-03T03:16:05;5.60;99.90
44823;DHT22;51097;51.984;5.650;2023-03-03T03:18:31;5.60;99.90
44823;DHT22;51097;51.984;5.650;2023-03-03T03:21:04;5.60;99.90
44823;DHT22;51097;51.984;5.650;2023-03-03T03:23:29;5.40;99.90
44823;DHT22;51097;51.984;5.650;2023-03-03T03:25:55;5.60;99.90
44823;DHT22;51097;51.984;5.650;2023-03-03T03:28:20;5.50;99.90
44823;DHT22;51097;51.984;5.650;2023-03-03T03:30:46;5.50;99.90
44823;DHT22;51097;51.984;5.650;2023-03-03T03:33:12;5.50;99.90
44823;DHT22;51097;51.984;5.650;2023-03-03T03:35:38;5.50;99.90
44823;DHT22;51097;51.984;5.650;2023-03-03T03:38:10;5.40;99.90
44823;DHT22;51097;51.984;5.650;2023-03-03T03:40:35;5.40;99.90
44823;DHT22;51097;51.984;5.650;2023-03-03T03:43:01;5.40;99.90
44823;DHT22;51097;51.984;5.650;2023-03-03T03:45:26;5.40;99.90
44823;DHT22;51097;51.984;5.650;2023-03-03T03:47:52;5.40;99.90
44823;DHT22;51097;51.984;5.650;2023-03-03T03:50:17;5.30;99.90
44823;DHT22;51097;51.984;5.650;2023-03-03T03:52:43;5.40;99.90
44823;DHT22;51097;51.984;5.650;2023-03-03T03:55:09;5.40;99.90
44823;DHT22;51097;51.984;5.650;2023-03-03T03:57:34;5.40;99.90
44823;DHT22;51097;51.984;5.650;2023-03-03T04:00:00;5.30;99.90
44823;DHT22;51097;51.984;5.650;2023-03-03T04:02:25;5.20;99.90
44823;DHT22;51097;51.984;5.650;2023-03-03T04:04:51;5.30;99.90
44823;DHT22;51097;51.984;5.650;2023-03-03T04:07:17;5.50;99.90
44823;DHT22;51097;51.984;5.650;2023-03-03T04:09:42;5.40;99.90
44823;DHT22;51097;51.984;5.650;2023-03-03T04:12:08;5.40;99.90
44823;DHT22;51097;51.984;5.650;2023-03-03T04:14:33;5.40;99.90
44823;DHT22;51097;51.984;5.650;2023-03-03T04:16:59;5.50;99.90
44823;DHT22;51097;51.984;5.650;2023-03-03T04:19:24;5.20;99.90
44823;DHT22;51097;51.984;5.650;2023-03-03T04:21:50;5.00;99.90
44823;DHT22;51097;51.984;5.650;2023-03-03T04:24:15;5.00;99.90
44823;DHT22;51097;51.984;5.650;2023-03-03T04:26:41;5.10;99.90
44823;DHT22;51097;51.984;5.650;2023-03-03T04:29:07;5.00;99.90
44823;DHT22;51097;51.984;5.650;2023-03-03T04:31:32;5.00;99.90
44823;DHT22;51097;51.984;5.650;2023-03-03T04:33:58;5.30;99.90
44823;DHT22;51097;51.984;5.650;2023-03-03T04:36:23;5.40;99.90
44823;DHT22;51097;51.984;5.650;2023-03-03T04:38:49;5.40;99.90
44823;DHT22;51097;51.984;5.650;2023-03-03T04:41:15;5.50;99.90
44823;DHT22;51097;51.984;5.650;2023-03-03T04:43:41;5.60;99.90
44823;DHT22;51097;51.984;5.650;2023-03-03T04:46:06;5.60;99.90
44823;DHT22;51097;51.984;5.650;2023-03-03T04:48:32;5.60;99.90
44823;DHT22;51097;51.984;5.650;2023-03-03T04:50:57;5.60;99.90
44823;DHT22;51097;51.984;5.650;2023-03-03T04:53:23;5.40;99.90
44823;DHT22;51097;51.984;5.650;2023-03-03T04:55:53;5.40;99.90
44823;DHT22;51097;51.984;5.650;2023-03-03T04:58:19;5.40;99.90
44823;DHT22;51097;51.984;5.650;2023-03-03T05:00:53;5.50;99.90
44823;DHT22;51097;51.984;5.650;2023-03-03T05:03:19;5.20;99.90
44823;DHT22;51097;51.984;5.650;2023-03-03T05:05:46;5.10;99.90
44823;DHT22;51097;51.984;5.650;2023-03-03T05:08:12;5.20;99.90
44823;DHT22;51097;51.984;5.650;2023-03-03T05:10:38;5.40;99.90
44823;DHT22;51097;51.984;5.650;2023-03-03T05:13:04;5.20;99.90
44823;DHT22;51097;51.984;5.650;2023-03-03T05:15:31;5.20;99.90
44823;DHT22;51097;51.984;5.650;2023-03-03T05:17:56;5.30;99.90
44823;DHT22;51097;51.984;5.650;2023-03-03T05:20:23;5.30;99.90
44823;DHT22;51097;51.984;5.650;2023-03-03T05:22:49;5.30;99.90
44823;DHT22;51097;51.984;5.650;2023-03-03T05:25:15;5.30;99.90
44823;DHT22;51097;51.984;5.650;2023-03-03T05:27:40;5.20;99.90
44823;DHT22;51097;51.984;5.650;2023-03-03T05:30:06;5.20;99.90
44823;DHT22;51097;51.984;5.650;2023-03-03T05:32:32;5.20;99.90
44823;DHT22;51097;51.984;5.650;2023-03-03T05:34:57;5.20;99.90
44823;DHT22;51097;51.984;5.650;2023-03-03T05:37:23;5.30;99.90
44823;DHT22;51097;51.984;5.650;2023-03-03T05:39:49;5.30;99.90
44823;DHT22;51097;51.984;5.650;2023-03-03T05:42:15;5.30;99.90
44823;DHT22;51097;51.984;5.650;2023-03-03T05:44:40;5.30;99.90
44823;DHT22;51097;51.984;5.650;2023-03-03T05:47:06;5.10;99.90
44823;DHT22;51097;51.984;5.650;2023-03-03T05:49:31;5.20;99.90
44823;DHT22;51097;51.984;5.650;2023-03-03T05:51:57;5.10;99.90
44823;DHT22;51097;51.984;5.650;2023-03-03T05:54:23;4.90;99.90
44823;DHT22;51097;51.984;5.650;2023-03-03T05:56:49;4.70;99.90
44823;DHT22;51097;51.984;5.650;2023-03-03T05:59:15;4.90;99.90
44823;DHT22;51097;51.984;5.650;2023-03-03T06:01:40;5.00;99.90
44823;DHT22;51097;51.984;5.650;2023-03-03T06:04:06;5.00;99.90
44823;DHT22;51097;51.984;5.650;2023-03-03T06:06:31;5.10;99.90
44823;DHT22;51097;51.984;5.650;2023-03-03T06:08:57;5.20;99.90
44823;DHT22;51097;51.984;5.650;2023-03-03T06:11:22;5.20;99.90
44823;DHT22;51097;51.984;5.650;2023-03-03T06:13:48;5.20;99.90
44823;DHT22;51097;51.984;5.650;2023-03-03T06:16:14;5.30;99.90
44823;DHT22;51097;51.984;5.650;2023-03-03T06:18:39;5.30;99.90
44823;DHT22;51097;51.984;5.650;2023-03-03T06:21:05;5.40;99.90
44823;DHT22;51097;51.984;5.650;2023-03-03T06:23:30;5.40;99.90
44823;DHT22;51097;51.984;5.650;2023-03-03T06:25:56;5.30;99.90
44823;DHT22;51097;51.984;5.650;2023-03-03T06:28:22;5.30;99.90
44823;DHT22;51097;51.984;5.650;2023-03-03T06:30:52;5.20;99.90
44823;DHT22;51097;51.984;5.650;2023-03-03T06:33:18;5.30;99.90
44823;DHT22;51097;51.984;5.650;2023-03-03T06:35:47;5.30;99.90
44823;DHT22;51097;51.984;5.650;2023-03-03T06:38:13;5.40;99.90
44823;DHT22;51097;51.984;5.650;2023-03-03T06:40:38;5.40;99.90
44823;DHT22;51097;51.984;5.650;2023-03-03T06:43:04;5.30;99.90
44823;DHT22;51097;51.984;5.650;2023-03-03T06:45:29;5.30;99.90
44823;DHT22;51097;51.984;5.650;2023-03-03T06:47:55;5.20;99.90
44823;DHT22;51097;51.984;5.650;2023-03-03T06:50:21;5.30;99.90
44823;DHT22;51097;51.984;5.650;2023-03-03T06:52:46;5.30;99.90
44823;DHT22;51097;51.984;5.650;2023-03-03T06:55:22;5.30;99.90
44823;DHT22;51097;51.984;5.650;2023-03-03T06:57:47;5.40;99.90
44823;DHT22;51097;51.984;5.650;2023-03-03T07:02:47;5.40;99.90
44823;DHT22;51097;51.984;5.650;2023-03-03T07:05:18;5.30;99.90
44823;DHT22;51097;51.984;5.650;2023-03-03T07:07:44;5.50;99.90
44823;DHT22;51097;51.984;5.650;2023-03-03T07:12:44;5.40;99.90
44823;DHT22;51097;51.984;5.650;2023-03-03T07:15:23;5.40;99.90
44823;DHT22;51097;51.984;5.650;2023-03-03T07:17:53;5.50;99.90
44823;DHT22;51097;51.984;5.650;2023-03-03T07:20:38;5.50;99.90
44823;DHT22;51097;51.984;5.650;2023-03-03T07:23:23;5.70;99.90
44823;DHT22;51097;51.984;5.650;2023-03-03T07:25:50;5.60;99.90
44823;DHT22;51097;51.984;5.650;2023-03-03T07:28:26;5.70;99.90
44823;DHT22;51097;51.984;5.650;2023-03-03T07:30:53;5.80;99.90
44823;DHT22;51097;51.984;5.650;2023-03-03T07:35:45;5.90;99.90
44823;DHT22;51097;51.984;5.650;2023-03-03T07:38:29;6.00;99.90
44823;DHT22;51097;51.984;5.650;2023-03-03T07:40:58;6.00;99.90
44823;DHT22;51097;51.984;5.650;2023-03-03T07:43:47;6.00;99.90
44823;DHT22;51097;51.984;5.650;2023-03-03T07:46:41;6.10;99.90
44823;DHT22;51097;51.984;5.650;2023-03-03T07:51:55;6.30;99.90
44823;DHT22;51097;51.984;5.650;2023-03-03T07:54:31;6.40;99.90
44823;DHT22;51097;51.984;5.650;2023-03-03T07:57:20;6.40;99.90
44823;DHT22;51097;51.984;5.650;2023-03-03T07:59:51;6.50;99.90
44823;DHT22;51097;51.984;5.650;2023-03-03T08:04:49;6.50;99.90
44823;DHT22;51097;51.984;5.650;2023-03-03T08:07:19;6.50;99.90
44823;DHT22;51097;51.984;5.650;2023-03-03T08:12:40;6.70;99.90
44823;DHT22;51097;51.984;5.650;2023-03-03T08:15:23;6.70;99.90
44823;DHT22;51097;51.984;5.650;2023-03-03T08:17:50;6.80;99.90
44823;DHT22;51097;51.984;5.650;2023-03-03T08:23:00;6.80;99.90
44823;DHT22;51097;51.984;5.650;2023-03-03T08:25:25;6.90;99.90
44823;DHT22;51097;51.984;5.650;2023-03-03T08:27:51;6.80;99.90
44823;DHT22;51097;51.984;5.650;2023-03-03T08:30:17;6.80;99.90
44823;DHT22;51097;51.984;5.650;2023-03-03T08:32:42;6.70;99.90
44823;DHT22;51097;51.984;5.650;2023-03-03T08:35:08;6.70;99.90
44823;DHT22;51097;51.984;5.650;2023-03-03T08:37:33;6.80;99.90
44823;DHT22;51097;51.984;5.650;2023-03-03T08:39:59;6.80;99.90
44823;DHT22;51097;51.984;5.650;2023-03-03T08:42:25;6.80;99.90
44823;DHT22;51097;51.984;5.650;2023-03-03T08:44:50;6.70;99.90
44823;DHT22;51097;51.984;5.650;2023-03-03T08:47:16;6.80;99.90
44823;DHT22;51097;51.984;5.650;2023-03-03T08:49:41;6.90;99.90
44823;DHT22;51097;51.984;5.650;2023-03-03T08:52:07;7.10;99.90
44823;DHT22;51097;51.984;5.650;2023-03-03T08:54:32;7.20;99.90
44823;DHT22;51097;51.984;5.650;2023-03-03T08:56:58;7.00;99.90
44823;DHT22;51097;51.984;5.650;2023-03-03T08:59:23;7.10;99.90
44823;DHT22;51097;51.984;5.650;2023-03-03T09:01:49;7.20;99.90
44823;DHT22;51097;51.984;5.650;2023-03-03T09:04:14;7.20;99.90
44823;DHT22;51097;51.984;5.650;2023-03-03T09:06:40;7.30;99.90
44823;DHT22;51097;51.984;5.650;2023-03-03T09:09:06;7.40;99.90
44823;DHT22;51097;51.984;5.650;2023-03-03T09:11:32;7.30;99.90
44823;DHT22;51097;51.984;5.650;2023-03-03T09:14:12;7.20;99.90
44823;DHT22;51097;51.984;5.650;2023-03-03T09:16:41;7.30;99.90
44823;DHT22;51097;51.984;5.650;2023-03-03T09:19:30;7.20;99.90
44823;DHT22;51097;51.984;5.650;2023-03-03T09:22:08;7.30;99.90
44823;DHT22;51097;51.984;5.650;2023-03-03T09:24:36;7.20;99.90
44823;DHT22;51097;51.984;5.650;2023-03-03T09:27:01;7.20;99.90
44823;DHT22;51097;51.984;5.650;2023-03-03T09:29:41;7.20;99.90
44823;DHT22;51097;51.984;5.650;2023-03-03T09:34:50;7.30;99.90
44823;DHT22;51097;51.984;5.650;2023-03-03T09:37:35;7.50;99.90
44823;DHT22;51097;51.984;5.650;2023-03-03T09:43:49;7.70;99.90
44823;DHT22;51097;51.984;5.650;2023-03-03T09:48:25;7.90;99.90
44823;DHT22;51097;51.984;5.650;2023-03-03T09:51:20;8.00;99.90
44823;DHT22;51097;51.984;5.650;2023-03-03T09:54:06;8.30;99.90
44823;DHT22;51097;51.984;5.650;2023-03-03T09:56:48;8.40;99.90
44823;DHT22;51097;51.984;5.650;2023-03-03T09:59:59;8.70;99.90
44823;DHT22;51097;51.984;5.650;2023-03-03T10:02:26;8.80;99.90
44823;DHT22;51097;51.984;5.650;2023-03-03T10:05:13;9.00;99.90
44823;DHT22;51097;51.984;5.650;2023-03-03T10:08:05;9.10;99.90
44823;DHT22;51097;51.984;5.650;2023-03-03T10:13:36;9.20;99.90
44823;DHT22;51097;51.984;5.650;2023-03-03T10:16:18;9.40;99.90
44823;DHT22;51097;51.984;5.650;2023-03-03T10:19:09;9.60;99.90
44823;DHT22;51097;51.984;5.650;2023-03-03T10:21:50;9.80;99.90
44823;DHT22;51097;51.984;5.650;2023-03-03T10:24:26;9.80;99.90
44823;DHT22;51097;51.984;5.650;2023-03-03T10:27:25;9.90;99.90
44823;DHT22;51097;51.984;5.650;2023-03-03T10:32:41;9.90;99.90
44823;DHT22;51097;51.984;5.650;2023-03-03T10:35:29;10.00;99.90
44823;DHT22;51097;51.984;5.650;2023-03-03T10:40:54;10.00;99.90
44823;DHT22;51097;51.984;5.650;2023-03-03T10:49:26;10.50;99.90
44823;DHT22;51097;51.984;5.650;2023-03-03T10:54:56;10.90;99.90
44823;DHT22;51097;51.984;5.650;2023-03-03T11:06:14;11.50;99.90
44823;DHT22;51097;51.984;5.650;2023-03-03T11:09:03;11.70;99.90
44823;DHT22;51097;51.984;5.650;2023-03-03T11:14:28;11.80;99.90
44823;DHT22;51097;51.984;5.650;2023-03-03T11:20:01;12.10;99.90
44823;DHT22;51097;51.984;5.650;2023-03-03T11:33:25;12.30;99.90
44823;DHT22;51097;51.984;5.650;2023-03-03T11:36:28;12.40;99.90
44823;DHT22;51097;51.984;5.650;2023-03-03T11:39:03;12.50;99.90
44823;DHT22;51097;51.984;5.650;2023-03-03T11:41:41;12.40;99.90
44823;DHT22;51097;51.984;5.650;2023-03-03T11:44:15;12.40;99.90
44823;DHT22;51097;51.984;5.650;2023-03-03T11:46:43;12.60;99.90
44823;DHT22;51097;51.984;5.650;2023-03-03T11:49:21;12.80;99.90
44823;DHT22;51097;51.984;5.650;2023-03-03T11:52:11;12.90;99.90
44823;DHT22;51097;51.984;5.650;2023-03-03T11:54:53;13.00;99.90
44823;DHT22;51097;51.984;5.650;2023-03-03T11:57:34;13.20;99.90
44823;DHT22;51097;51.984;5.650;2023-03-03T12:00:15;13.40;99.90
44823;DHT22;51097;51.984;5.650;2023-03-03T12:03:31;13.40;99.90
44823;DHT22;51097;51.984;5.650;2023-03-03T12:09:08;13.60;99.90
44823;DHT22;51097;51.984;5.650;2023-03-03T12:12:05;13.90;99.90
44823;DHT22;51097;51.984;5.650;2023-03-03T12:23:36;13.90;99.90
44823;DHT22;51097;51.984;5.650;2023-03-03T12:26:12;13.80;99.90
44823;DHT22;51097;51.984;5.650;2023-03-03T12:34:05;13.60;99.90
44823;DHT22;51097;51.984;5.650;2023-03-03T12:37:01;13.60;99.90
44823;DHT22;51097;51.984;5.650;2023-03-03T12:48:14;14.70;99.90
44823;DHT22;51097;51.984;5.650;2023-03-03T12:50:44;15.00;99.90
44823;DHT22;51097;51.984;5.650;2023-03-03T12:53:24;15.20;99.90
44823;DHT22;51097;51.984;5.650;2023-03-03T12:55:58;15.40;99.90
44823;DHT22;51097;51.984;5.650;2023-03-03T13:09:42;15.50;99.90
44823;DHT22;51097;51.984;5.650;2023-03-03T13:14:53;15.60;99.90
44823;DHT22;51097;51.984;5.650;2023-03-03T13:20:00;15.80;99.90
44823;DHT22;51097;51.984;5.650;2023-03-03T13:22:40;15.80;99.90
44823;DHT22;51097;51.984;5.650;2023-03-03T13:25:29;16.00;99.90
44823;DHT22;51097;51.984;5.650;2023-03-03T13:28:01;16.10;99.90
44823;DHT22;51097;51.984;5.650;2023-03-03T13:30:33;16.10;99.90
44823;DHT22;51097;51.984;5.650;2023-03-03T13:33:14;16.40;99.90
44823;DHT22;51097;51.984;5.650;2023-03-03T13:35:55;16.50;99.90
44823;DHT22;51097;51.984;5.650;2023-03-03T13:38:40;16.30;99.60
44823;DHT22;51097;51.984;5.650;2023-03-03T13:41:21;16.50;99.90
44823;DHT22;51097;51.984;5.650;2023-03-03T13:44:03;16.90;99.90
44823;DHT22;51097;51.984;5.650;2023-03-03T13:52:04;17.30;99.70
44823;DHT22;51097;51.984;5.650;2023-03-03T14:00:18;17.80;99.90
44823;DHT22;51097;51.984;5.650;2023-03-03T14:16:49;18.40;99.90
44823;DHT22;51097;51.984;5.650;2023-03-03T14:19:36;18.40;99.90
44823;DHT22;51097;51.984;5.650;2023-03-03T14:25:06;18.60;98.20
44823;DHT22;51097;51.984;5.650;2023-03-03T14:30:39;18.40;98.30
44823;DHT22;51097;51.984;5.650;2023-03-03T14:38:36;18.10;99.90
44823;DHT22;51097;51.984;5.650;2023-03-03T14:41:15;18.10;98.70
44823;DHT22;51097;51.984;5.650;2023-03-03T14:43:45;18.00;99.30
44823;DHT22;51097;51.984;5.650;2023-03-03T14:46:34;17.80;98.00
44823;DHT22;51097;51.984;5.650;2023-03-03T14:49:33;17.50;98.40
44823;DHT22;51097;51.984;5.650;2023-03-03T14:55:00;17.40;99.90
44823;DHT22;51097;51.984;5.650;2023-03-03T15:05:24;17.10;99.90
44823;DHT22;51097;51.984;5.650;2023-03-03T15:10:34;17.10;99.40
44823;DHT22;51097;51.984;5.650;2023-03-03T15:16:11;17.00;99.70
44823;DHT22;51097;51.984;5.650;2023-03-03T15:21:32;17.10;99.00
44823;DHT22;51097;51.984;5.650;2023-03-03T15:24:23;17.00;99.90
44823;DHT22;51097;51.984;5.650;2023-03-03T15:27:18;16.90;99.20
44823;DHT22;51097;51.984;5.650;2023-03-03T15:29:58;16.80;99.00
44823;DHT22;51097;51.984;5.650;2023-03-03T15:32:53;16.60;99.50
44823;DHT22;51097;51.984;5.650;2023-03-03T15:43:44;16.10;99.90
44823;DHT22;51097;51.984;5.650;2023-03-03T15:46:22;16.00;99.50
44823;DHT22;51097;51.984;5.650;2023-03-03T16:03:01;15.10;98.90
44823;DHT22;51097;51.984;5.650;2023-03-03T16:05:34;14.80;98.50
44823;DHT22;51097;51.984;5.650;2023-03-03T16:08:15;14.70;99.80
44823;DHT22;51097;51.984;5.650;2023-03-03T16:10:48;14.70;99.90
44823;DHT22;51097;51.984;5.650;2023-03-03T16:23:54;14.40;99.90
44823;DHT22;51097;51.984;5.650;2023-03-03T16:26:32;14.20;99.90
44823;DHT22;51097;51.984;5.650;2023-03-03T16:32:19;13.80;99.90
44823;DHT22;51097;51.984;5.650;2023-03-03T16:35:24;13.80;99.90
44823;DHT22;51097;51.984;5.650;2023-03-03T16:38:02;13.60;99.90
44823;DHT22;51097;51.984;5.650;2023-03-03T16:40:34;13.50;99.90
44823;DHT22;51097;51.984;5.650;2023-03-03T16:43:10;13.30;99.90
44823;DHT22;51097;51.984;5.650;2023-03-03T16:45:40;13.20;99.90
44823;DHT22;51097;51.984;5.650;2023-03-03T16:48:24;13.30;99.90
44823;DHT22;51097;51.984;5.650;2023-03-03T16:51:03;13.20;99.90
44823;DHT22;51097;51.984;5.650;2023-03-03T16:56:17;12.90;99.90
44823;DHT22;51097;51.984;5.650;2023-03-03T16:59:07;12.80;99.90
44823;DHT22;51097;51.984;5.650;2023-03-03T17:21:18;11.90;99.90
44823;DHT22;51097;51.984;5.650;2023-03-03T17:24:03;11.70;99.90
44823;DHT22;51097;51.984;5.650;2023-03-03T17:32:11;11.40;99.90
44823;DHT22;51097;51.984;5.650;2023-03-03T17:37:42;11.20;99.90
44823;DHT22;51097;51.984;5.650;2023-03-03T17:43:24;10.90;99.90
44823;DHT22;51097;51.984;5.650;2023-03-03T17:45:55;10.80;99.90
44823;DHT22;51097;51.984;5.650;2023-03-03T17:51:15;10.60;99.90
44823;DHT22;51097;51.984;5.650;2023-03-03T17:54:46;10.50;99.90
44823;DHT22;51097;51.984;5.650;2023-03-03T18:08:23;10.30;99.90
44823;DHT22;51097;51.984;5.650;2023-03-03T18:20:02;10.20;99.90
44823;DHT22;51097;51.984;5.650;2023-03-03T18:22:47;10.10;99.90
44823;DHT22;51097;51.984;5.650;2023-03-03T18:25:24;10.30;99.90
44823;DHT22;51097;51.984;5.650;2023-03-03T18:33:40;10.30;99.90
44823;DHT22;51097;51.984;5.650;2023-03-03T18:36:53;10.40;99.90
44823;DHT22;51097;51.984;5.650;2023-03-03T18:38:57;10.30;99.90
44823;DHT22;51097;51.984;5.650;2023-03-03T18:41:31;10.20;99.90
44823;DHT22;51097;51.984;5.650;2023-03-03T19:05:14;10.10;99.90
44823;DHT22;51097;51.984;5.650;2023-03-03T19:10:56;10.00;99.90
44823;DHT22;51097;51.984;5.650;2023-03-03T19:16:02;10.10;99.90
44823;DHT22;51097;51.984;5.650;2023-03-03T19:18:32;10.10;99.90
44823;DHT22;51097;51.984;5.650;2023-03-03T19:20:59;10.10;99.90
44823;DHT22;51097;51.984;5.650;2023-03-03T19:23:51;10.10;99.90
44823;DHT22;51097;51.984;5.650;2023-03-03T19:29:20;10.00;99.90
44823;DHT22;51097;51.984;5.650;2023-03-03T19:43:09;9.90;99.90
44823;DHT22;51097;51.984;5.650;2023-03-03T19:45:50;9.90;99.90
44823;DHT22;51097;51.984;5.650;2023-03-03T19:48:47;9.90;99.90
44823;DHT22;51097;51.984;5.650;2023-03-03T19:54:20;10.00;99.90
44823;DHT22;51097;51.984;5.650;2023-03-03T19:56:52;10.10;99.90
44823;DHT22;51097;51.984;5.650;2023-03-03T19:59:31;10.00;99.90
44823;DHT22;51097;51.984;5.650;2023-03-03T20:05:25;10.00;99.90
44823;DHT22;51097;51.984;5.650;2023-03-03T20:13:31;10.00;99.90
44823;DHT22;51097;51.984;5.650;2023-03-03T20:21:42;10.10;99.90
44823;DHT22;51097;51.984;5.650;2023-03-03T20:24:32;10.10;99.90
44823;DHT22;51097;51.984;5.650;2023-03-03T20:27:08;10.10;99.90
44823;DHT22;51097;51.984;5.650;2023-03-03T20:30:07;10.00;99.90
44823;DHT22;51097;51.984;5.650;2023-03-03T20:35:58;10.20;99.90
44823;DHT22;51097;51.984;5.650;2023-03-03T20:41:27;10.10;99.90
44823;DHT22;51097;51.984;5.650;2023-03-03T20:49:59;10.00;99.90
44823;DHT22;51097;51.984;5.650;2023-03-03T20:55:17;10.10;99.90
44823;DHT22;51097;51.984;5.650;2023-03-03T20:57:57;10.00;99.90
44823;DHT22;51097;51.984;5.650;2023-03-03T21:06:07;10.10;99.90
44823;DHT22;51097;51.984;5.650;2023-03-03T21:08:49;10.10;99.90
44823;DHT22;51097;51.984;5.650;2023-03-03T21:11:39;10.20;99.90
44823;DHT22;51097;51.984;5.650;2023-03-03T21:14:27;10.20;99.90
44823;DHT22;51097;51.984;5.650;2023-03-03T21:16:55;10.10;99.90
44823;DHT22;51097;51.984;5.650;2023-03-03T21:19:32;10.00;99.90
44823;DHT22;51097;51.984;5.650;2023-03-03T21:21:59;10.00;99.90
44823;DHT22;51097;51.984;5.650;2023-03-03T21:24:55;10.00;99.90
44823;DHT22;51097;51.984;5.650;2023-03-03T21:30:13;10.00;99.90
44823;DHT22;51097;51.984;5.650;2023-03-03T21:32:46;10.00;99.90
44823;DHT22;51097;51.984;5.650;2023-03-03T21:35:20;9.90;99.90
44823;DHT22;51097;51.984;5.650;2023-03-03T21:37:50;10.00;99.90
44823;DHT22;51097;51.984;5.650;2023-03-03T21:40:27;9.90;99.90
44823;DHT22;51097;51.984;5.650;2023-03-03T21:42:57;9.90;99.90
44823;DHT22;51097;51.984;5.650;2023-03-03T21:45:24;9.90;99.90
44823;DHT22;51097;51.984;5.650;2023-03-03T21:47:51;9.90;99.90
44823;DHT22;51097;51.984;5.650;2023-03-03T21:50:19;10.00;99.90
44823;DHT22;51097;51.984;5.650;2023-03-03T21:52:46;10.00;99.90
44823;DHT22;51097;51.984;5.650;2023-03-03T21:55:12;9.90;99.90
44823;DHT22;51097;51.984;5.650;2023-03-03T21:57:37;9.90;99.90
44823;DHT22;51097;51.984;5.650;2023-03-03T22:00:04;9.90;99.90
44823;DHT22;51097;51.984;5.650;2023-03-03T22:02:30;9.90;99.90
44823;DHT22;51097;51.984;5.650;2023-03-03T22:04:56;10.00;99.90
44823;DHT22;51097;51.984;5.650;2023-03-03T22:07:22;9.90;99.90
44823;DHT22;51097;51.984;5.650;2023-03-03T22:09:47;9.90;99.90
44823;DHT22;51097;51.984;5.650;2023-03-03T22:12:13;9.90;99.90
44823;DHT22;51097;51.984;5.650;2023-03-03T22:14:38;9.90;99.90
44823;DHT22;51097;51.984;5.650;2023-03-03T22:17:04;10.00;99.90
44823;DHT22;51097;51.984;5.650;2023-03-03T22:19:30;10.00;99.90
44823;DHT22;51097;51.984;5.650;2023-03-03T22:21:55;10.00;99.90